Time;durP1;ratioP1;P1;durP2;ratioP2;P2;SDS_P1;SDS_P2;PMS_P1;PMS_P2;Temp;Humidity;BMP_temperature;BMP_pressure;BME280_temperature;BME280_humidity;BME280_pressure;Samples;Min_cycle;Max_cycle;Signal;HPM_P1;HPM_P2
2023/06/09 00:00:17;;;;;;;;;;;;;;;;;;5075314;28;19959;-75
2023/06/09 00:02:44;;;;;;;;;;;;;;;;;;5074651;28;20487;-75
2023/06/09 00:05:11;;;;;;;;;;;;;;;;;;5075176;28;20334;-75
2023/06/09 00:07:37;;;;;;;;;;;;;;;;;;5074566;28;19963;-75
2023/06/09 00:10:02;;;;;;;;;;;;;;;;;;5075134;28;19956;-76
2023/06/09 00:12:28;;;;;;;;;;;;;;;;;;5074773;28;19962;-75
2023/06/09 00:14:54;;;;;;;;;;;;;;;;;;5074700;28;20397;-76
2023/06/09 00:17:24;;;;;;;;;;;;;;;;;;5074916;28;19975;-74
2023/06/09 00:19:52;;;;;;;;;;;;;;;;;;5074327;28;19998;-76
2023/06/09 00:22:19;;;;;;;;;;;;;;;;;;5074894;28;20459;-75
2023/06/09 00:24:45;;;;;;;;;;;;;;;;;;5074259;28;19962;-76
2023/06/09 00:27:11;;;;;;;;;;;;;;;;;;5074498;28;20054;-75
2023/06/09 00:29:37;;;;;;;;;;;;;;;;;;5074117;28;19959;-75
2023/06/09 00:32:03;;;;;;;;;;;;;;;;;;5074120;28;20310;-76
2023/06/09 00:34:29;;;;;;;;;;;;;;;;;;5074031;28;20437;-75
2023/06/09 00:36:55;;;;;;;;;;;;;;;;;;5073994;28;19983;-75
2023/06/09 00:39:21;;;;;;;;;;;;;;;;;;5074003;28;19955;-76
2023/06/09 00:41:47;;;;;;;;;;;;;;;;;;5074252;28;19959;-76
2023/06/09 00:44:13;;;;;;;;;;;;;;;;;;5073521;28;19995;-76
2023/06/09 00:46:39;;;;;;;;;;;;;;;;;;5073871;28;19955;-76
2023/06/09 00:49:05;;;;;;;;;;;;;;;;;;5074138;28;19955;-75
2023/06/09 00:51:31;;;;;;;;;;;;;;;;;;5073851;28;19963;-75
2023/06/09 00:53:56;;;;;;;;;;;;;;;;;;5073756;28;20318;-76
2023/06/09 00:56:26;;;;;;;;;;;;;;;;;;5073993;28;20022;-75
2023/06/09 00:58:51;;;;;;;;;;;;;;;;;;5074044;28;20372;-76
2023/06/09 01:01:17;;;;;;;;;;;;;;;;;;5073774;28;19960;-75
2023/06/09 01:03:43;;;;;;;;;;;;;;;;;;5074246;28;19962;-75
2023/06/09 01:06:09;;;;;;;;;;;;;;;;;;5073689;28;19955;-76
2023/06/09 01:08:35;;;;;;;;;;;;;;;;;;5074736;28;20085;-75
2023/06/09 01:11:01;;;;;;;;;;;;;;;;;;5073669;28;20008;-76
2023/06/09 01:13:27;;;;;;;;;;;;;;;;;;5073555;28;20003;-75
2023/06/09 01:15:53;;;;;;;;;;;;;;;;;;5074027;28;20435;-75
2023/06/09 01:18:20;;;;;;;;;;;;;;;;;;5073813;28;19956;-76
2023/06/09 01:20:46;;;;;;;;;;;;;;;;;;5073801;28;19962;-75
2023/06/09 01:23:16;;;;;;;;;;;;;;;;;;5073538;28;19962;-75
2023/06/09 01:25:42;;;;;;;;;;;;;;;;;;5072218;28;19959;-75
2023/06/09 01:28:07;;;;;;;;;;;;;;;;;;5073731;28;20046;-75
2023/06/09 01:30:33;;;;;;;;;;;;;;;;;;5073442;28;20058;-75
2023/06/09 01:33:00;;;;;;;;;;;;;;;;;;5073411;28;19962;-75
2023/06/09 01:35:25;;;;;;;;;;;;;;;;;;5073560;28;19972;-75
2023/06/09 01:37:51;;;;;;;;;;;;;;;;;;5073629;28;20295;-75
2023/06/09 01:40:17;;;;;;;;;;;;;;;;;;5073915;28;19967;-75
2023/06/09 01:42:43;;;;;;;;;;;;;;;;;;5073511;28;19991;-74
2023/06/09 01:45:09;;;;;;;;;;;;;;;;;;5073285;28;19963;-75
2023/06/09 01:47:35;;;;;;;;;;;;;;;;;;5071984;28;19967;-75
2023/06/09 01:50:01;;;;;;;;;;;;;;;;;;5073474;28;19955;-76
2023/06/09 01:52:27;;;;;;;;;;;;;;;;;;5073481;28;20072;-76
2023/06/09 01:54:53;;;;;;;;;;;;;;;;;;5073718;28;19955;-75
2023/06/09 01:57:19;;;;;;;;;;;;;;;;;;5077335;28;20348;-75
2023/06/09 01:59:45;;;;;;;;;;;;;;;;;;5077654;28;20047;-76
2023/06/09 02:02:11;;;;;;;;;;;;;;;;;;5076989;28;20002;-76
2023/06/09 02:04:37;;;;;;;;;;;;;;;;;;5077589;28;20001;-75
2023/06/09 02:07:03;;;;;;;;;;;;;;;;;;5076941;28;20009;-75
2023/06/09 02:09:29;;;;;;;;;;;;;;;;;;5077713;28;19978;-76
2023/06/09 02:11:55;;;;;;;;;;;;;;;;;;5077069;28;20406;-75
2023/06/09 02:14:21;;;;;;;;;;;;;;;;;;5077306;28;19955;-75
2023/06/09 02:16:47;;;;;;;;;;;;;;;;;;5076649;28;19987;-75
2023/06/09 02:19:13;;;;;;;;;;;;;;;;;;5076930;28;19955;-75
2023/06/09 02:21:39;;;;;;;;;;;;;;;;;;5076863;28;19963;-76
2023/06/09 02:24:06;;;;;;;;;;;;;;;;;;5076578;28;19956;-75
2023/06/09 02:26:32;;;;;;;;;;;;;;;;;;5076852;28;19955;-75
2023/06/09 02:28:58;;;;;;;;;;;;;;;;;;5076801;28;20459;-75
2023/06/09 02:31:24;;;;;;;;;;;;;;;;;;5076494;28;19955;-75
2023/06/09 02:33:49;;;;;;;;;;;;;;;;;;5076866;28;20369;-75
2023/06/09 02:36:16;;;;;;;;;;;;;;;;;;5076273;28;20368;-75
2023/06/09 02:38:42;;;;;;;;;;;;;;;;;;5076360;28;19955;-75
2023/06/09 02:41:08;;;;;;;;;;;;;;;;;;5076304;28;20409;-75
2023/06/09 02:43:34;;;;;;;;;;;;;;;;;;5076277;28;20419;-75
2023/06/09 02:46:00;;;;;;;;;;;;;;;;;;5076199;28;20474;-75
2023/06/09 02:48:26;;;;;;;;;;;;;;;;;;5076190;28;19987;-75
2023/06/09 02:50:51;;;;;;;;;;;;;;;;;;5076379;28;19955;-75
2023/06/09 02:53:17;;;;;;;;;;;;;;;;;;5076137;28;20417;-75
2023/06/09 02:55:44;;;;;;;;;;;;;;;;;;5076012;28;19976;-75
2023/06/09 02:58:14;;;;;;;;;;;;;;;;;;5074743;28;19959;-75
2023/06/09 03:00:40;;;;;;;;;;;;;;;;;;5074670;28;20142;-75
2023/06/09 03:03:06;;;;;;;;;;;;;;;;;;5075877;28;20021;-74
2023/06/09 03:05:32;;;;;;;;;;;;;;;;;;5075730;28;20050;-77
2023/06/09 03:07:59;;;;;;;;;;;;;;;;;;5075799;28;19994;-75
2023/06/09 03:10:25;;;;;;;;;;;;;;;;;;5076328;28;19964;-75
2023/06/09 03:12:51;;;;;;;;;;;;;;;;;;5075714;28;20005;-76
2023/06/09 03:15:17;;;;;;;;;;;;;;;;;;5075869;28;19960;-75
2023/06/09 03:17:43;;;;;;;;;;;;;;;;;;5075918;28;20089;-75
2023/06/09 03:20:09;;;;;;;;;;;;;;;;;;5076111;28;19955;-77
2023/06/09 03:22:36;;;;;;;;;;;;;;;;;;5075555;28;19970;-75
2023/06/09 03:25:02;;;;;;;;;;;;;;;;;;5075792;28;19955;-75
2023/06/09 03:27:28;;;;;;;;;;;;;;;;;;5075687;28;20443;-76
2023/06/09 03:29:54;;;;;;;;;;;;;;;;;;5075930;28;20013;-77
2023/06/09 03:32:20;;;;;;;;;;;;;;;;;;5075339;28;20329;-75
2023/06/09 03:34:46;;;;;;;;;;;;;;;;;;5075188;28;20058;-75
2023/06/09 03:37:14;;;;;;;;;;;;;;;;;;5075749;28;20050;-76
2023/06/09 03:39:40;;;;;;;;;;;;;;;;;;5073887;28;20341;-75
2023/06/09 03:42:06;;;;;;;;;;;;;;;;;;5075448;28;20005;-75
2023/06/09 03:44:32;;;;;;;;;;;;;;;;;;5075722;28;19959;-75
2023/06/09 03:46:58;;;;;;;;;;;;;;;;;;5073684;28;19963;-75
2023/06/09 03:49:24;;;;;;;;;;;;;;;;;;5075608;28;19955;-75
2023/06/09 03:51:49;;;;;;;;;;;;;;;;;;5074942;28;19955;-76
2023/06/09 03:54:15;;;;;;;;;;;;;;;;;;5075448;28;19962;-75
2023/06/09 03:56:41;;;;;;;;;;;;;;;;;;5074743;28;19976;-75
2023/06/09 03:59:07;;;;;;;;;;;;;;;;;;5075341;28;19959;-76
2023/06/09 04:01:33;;;;;;;;;;;;;;;;;;5074968;28;19956;-76
2023/06/09 04:03:59;;;;;;;;;;;;;;;;;;5075226;28;20042;-75
2023/06/09 04:06:26;;;;;;;;;;;;;;;;;;5074586;28;19977;-75
2023/06/09 04:08:53;;;;;;;;;;;;;;;;;;5075185;28;19955;-75
2023/06/09 04:11:19;;;;;;;;;;;;;;;;;;5074563;28;19956;-75
2023/06/09 04:13:47;;;;;;;;;;;;;;;;;;5075058;28;20418;-75
2023/06/09 04:16:13;;;;;;;;;;;;;;;;;;5074439;28;20394;-76
2023/06/09 04:18:39;;;;;;;;;;;;;;;;;;5073878;28;20050;-76
2023/06/09 04:21:05;;;;;;;;;;;;;;;;;;5074655;28;19955;-76
2023/06/09 04:23:32;;;;;;;;;;;;;;;;;;5074314;28;20440;-75
2023/06/09 04:25:59;;;;;;;;;;;;;;;;;;5073026;28;20437;-76
2023/06/09 04:28:27;;;;;;;;;;;;;;;;;;5074232;28;20322;-75
2023/06/09 04:30:54;;;;;;;;;;;;;;;;;;5074803;28;20005;-76
2023/06/09 04:33:19;;;;;;;;;;;;;;;;;;5074342;28;20321;-75
2023/06/09 04:35:46;;;;;;;;;;;;;;;;;;5074310;28;20077;-76
2023/06/09 04:38:12;;;;;;;;;;;;;;;;;;5074099;28;19963;-75
2023/06/09 04:40:39;;;;;;;;;;;;;;;;;;5074010;28;19960;-75
2023/06/09 04:43:07;;;;;;;;;;;;;;;;;;5073958;28;19998;-76
2023/06/09 04:45:35;;;;;;;;;;;;;;;;;;5073970;28;20397;-75
2023/06/09 04:48:01;;;;;;;;;;;;;;;;;;5073948;28;20001;-75
2023/06/09 04:50:33;;;;;;;;;;;;;;;;;;5074169;28;19959;-76
2023/06/09 04:52:58;;;;;;;;;;;;;;;;;;5073920;28;19956;-76
2023/06/09 04:55:25;;;;;;;;;;;;;;;;;;5074024;28;19962;-76
2023/06/09 04:57:53;;;;;;;;;;;;;;;;;;5074388;28;20314;-76
2023/06/09 05:00:19;;;;;;;;;;;;;;;;;;5074082;28;20424;-76
2023/06/09 05:02:45;;;;;;;;;;;;;;;;;;5073726;28;20017;-75
2023/06/09 05:05:12;;;;;;;;;;;;;;;;;;5073679;28;20042;-75
2023/06/09 05:07:39;;;;;;;;;;;;;;;;;;5073989;28;19967;-75
2023/06/09 05:10:05;;;;;;;;;;;;;;;;;;5074259;28;19956;-74
2023/06/09 05:12:31;;;;;;;;;;;;;;;;;;5074127;28;19962;-75
2023/06/09 05:14:57;;;;;;;;;;;;;;;;;;5073620;28;19955;-75
2023/06/09 05:17:24;;;;;;;;;;;;;;;;;;5072235;28;19979;-75
2023/06/09 05:19:50;;;;;;;;;;;;;;;;;;5073826;28;19956;-76
2023/06/09 05:22:16;;;;;;;;;;;;;;;;;;5072197;28;20005;-75
2023/06/09 05:24:42;;;;;;;;;;;;;;;;;;5073529;28;19962;-75
2023/06/09 05:27:08;;;;;;;;;;;;;;;;;;5073771;28;19967;-76
2023/06/09 05:29:34;;;;;;;;;;;;;;;;;;5073542;28;20025;-75
2023/06/09 05:31:59;;;;;;;;;;;;;;;;;;5077644;28;19956;-74
2023/06/09 05:34:26;;;;;;;;;;;;;;;;;;5077506;28;20460;-76
2023/06/09 05:36:51;;;;;;;;;;;;;;;;;;5077461;28;19975;-75
2023/06/09 05:39:17;;;;;;;;;;;;;;;;;;5077454;28;20058;-75
2023/06/09 05:41:43;;;;;;;;;;;;;;;;;;5077687;28;19955;-76
2023/06/09 05:44:09;;;;;;;;;;;;;;;;;;5076860;28;20490;-75
2023/06/09 05:46:35;;;;;;;;;;;;;;;;;;5077619;28;19955;-76
2023/06/09 05:49:01;;;;;;;;;;;;;;;;;;5077309;28;20413;-76
2023/06/09 05:51:27;;;;;;;;;;;;;;;;;;5077797;28;20005;-75
2023/06/09 05:53:53;;;;;;;;;;;;;;;;;;5077510;28;19955;-76
2023/06/09 05:56:19;;;;;;;;;;;;;;;;;;5077094;28;20445;-75
2023/06/09 05:58:45;;;;;;;;;;;;;;;;;;5077163;28;19962;-76
2023/06/09 06:01:12;;;;;;;;;;;;;;;;;;5077070;28;19956;-76
2023/06/09 06:03:38;;;;;;;;;;;;;;;;;;5077570;28;20066;-76
2023/06/09 06:06:04;;;;;;;;;;;;;;;;;;5076995;28;19963;-76
2023/06/09 06:08:30;;;;;;;;;;;;;;;;;;5076887;28;19956;-76
2023/06/09 06:10:56;;;;;;;;;;;;;;;;;;5077686;28;19999;-76
2023/06/09 06:13:22;;;;;;;;;;;;;;;;;;5076791;28;20329;-74
2023/06/09 06:15:48;;;;;;;;;;;;;;;;;;5076925;28;19979;-75
2023/06/09 06:18:14;;;;;;;;;;;;;;;;;;5076653;28;20443;-75
2023/06/09 06:20:40;;;;;;;;;;;;;;;;;;5076659;28;19956;-75
2023/06/09 06:23:08;;;;;;;;;;;;;;;;;;5076941;28;19987;-75
2023/06/09 06:25:36;;;;;;;;;;;;;;;;;;5076863;28;19956;-76
2023/06/09 06:28:02;;;;;;;;;;;;;;;;;;5077127;28;19955;-75
2023/06/09 06:30:29;;;;;;;;;;;;;;;;;;5076489;28;19959;-76
2023/06/09 06:32:55;;;;;;;;;;;;;;;;;;5076724;28;20045;-75
2023/06/09 06:35:20;;;;;;;;;;;;;;;;;;5076329;28;20015;-76
2023/06/09 06:37:46;;;;;;;;;;;;;;;;;;5076630;28;19966;-76
2023/06/09 06:40:13;;;;;;;;;;;;;;;;;;5076247;28;20377;-76
2023/06/09 06:42:40;;;;;;;;;;;;;;;;;;5075680;28;20082;-75
2023/06/09 06:45:05;;;;;;;;;;;;;;;;;;5076284;28;20042;-76
2023/06/09 06:47:31;;;;;;;;;;;;;;;;;;5075158;28;20443;-76
2023/06/09 06:49:57;;;;;;;;;;;;;;;;;;5076694;28;19955;-71
2023/06/09 06:52:23;;;;;;;;;;;;;;;;;;5076138;28;20001;-68
2023/06/09 06:54:49;;;;;;;;;;;;;;;;;;5076615;28;20400;-68
2023/06/09 06:57:15;;;;;;;;;;;;;;;;;;5076253;28;19979;-67
2023/06/09 06:59:41;;;;;;;;;;;;;;;;;;5075938;28;20337;-68
2023/06/09 07:02:07;;;;;;;;;;;;;;;;;;5076459;28;20025;-67
2023/06/09 07:04:32;;;;;;;;;;;;;;;;;;5075867;28;19956;-67
2023/06/09 07:06:58;;;;;;;;;;;;;;;;;;5075803;28;20004;-68
2023/06/09 07:09:25;;;;;;;;;;;;;;;;;;5076305;28;19959;-68
2023/06/09 07:11:50;;;;;;;;;;;;;;;;;;5076049;28;19959;-67
2023/06/09 07:14:16;;;;;;;;;;;;;;;;;;5075990;28;20453;-68
2023/06/09 07:16:42;;;;;;;;;;;;;;;;;;5075831;28;19982;-68
2023/06/09 07:19:09;;;;;;;;;;;;;;;;;;5075562;28;19959;-67
2023/06/09 07:21:35;;;;;;;;;;;;;;;;;;5075861;28;19960;-67
2023/06/09 07:24:03;;;;;;;;;;;;;;;;;;5075816;28;20050;-67
2023/06/09 07:26:29;;;;;;;;;;;;;;;;;;5075464;28;20042;-68
2023/06/09 07:28:55;;;;;;;;;;;;;;;;;;5075646;28;20001;-68
2023/06/09 07:31:21;;;;;;;;;;;;;;;;;;5075355;28;19962;-67
2023/06/09 07:33:47;;;;;;;;;;;;;;;;;;5075845;28;19972;-68
2023/06/09 07:36:13;;;;;;;;;;;;;;;;;;5075167;28;20337;-68
2023/06/09 07:38:39;;;;;;;;;;;;;;;;;;5075248;28;19963;-68
2023/06/09 07:41:05;;;;;;;;;;;;;;;;;;5075457;28;19956;-68
2023/06/09 07:43:31;;;;;;;;;;;;;;;;;;5074980;28;19995;-68
2023/06/09 07:45:57;;;;;;;;;;;;;;;;;;5075374;28;19956;-67
2023/06/09 07:48:23;;;;;;;;;;;;;;;;;;5075080;28;19962;-68
2023/06/09 07:50:49;;;;;;;;;;;;;;;;;;5075283;28;20002;-67
2023/06/09 07:53:15;;;;;;;;;;;;;;;;;;5074048;28;20417;-67
2023/06/09 07:55:41;;;;;;;;;;;;;;;;;;5075034;28;19967;-67
2023/06/09 07:58:07;;;;;;;;;;;;;;;;;;5074838;28;20010;-68
2023/06/09 08:00:33;;;;;;;;;;;;;;;;;;5075306;28;19987;-68
2023/06/09 08:03:00;;;;;;;;;;;;;;;;;;5074924;28;19962;-68
2023/06/09 08:05:26;;;;;;;;;;;;;;;;;;5075032;28;19979;-68
2023/06/09 08:07:52;;;;;;;;;;;;;;;;;;5074610;28;20442;-68
2023/06/09 08:10:18;;;;;;;;;;;;;;;;;;5075680;28;19966;-68
2023/06/09 08:12:43;;;;;;;;;;;;;;;;;;5074532;28;19971;-68
2023/06/09 08:15:10;;;;;;;;;;;;;;;;;;5074687;28;20009;-68
2023/06/09 08:17:36;;;;;;;;;;;;;;;;;;5074431;28;19976;-67
2023/06/09 08:20:03;;;;;;;;;;;;;;;;;;5074730;28;20335;-67
2023/06/09 08:22:29;;;;;;;;;;;;;;;;;;5074364;28;19961;-67
2023/06/09 08:24:56;;;;;;;;;;;;;;;;;;5074626;28;20050;-67
2023/06/09 08:27:22;;;;;;;;;;;;;;;;;;5074599;28;20471;-69
2023/06/09 08:29:51;;;;;;;;;;;;;;;;;;5074501;28;19960;-69
2023/06/09 08:32:17;;;;;;;;;;;;;;;;;;5072881;28;20391;-69
2023/06/09 08:34:43;;;;;;;;;;;;;;;;;;5074306;28;19971;-69
2023/06/09 08:37:09;;;;;;;;;;;;;;;;;;5074003;28;19983;-69
2023/06/09 08:39:35;;;;;;;;;;;;;;;;;;5074070;28;19995;-69
2023/06/09 08:42:01;;;;;;;;;;;;;;;;;;5073836;28;20356;-70
2023/06/09 08:44:27;;;;;;;;;;;;;;;;;;5074635;28;19967;-68
2023/06/09 08:46:53;;;;;;;;;;;;;;;;;;5074110;28;19955;-70
2023/06/09 08:49:19;;;;;;;;;;;;;;;;;;5074419;28;19990;-71
2023/06/09 08:51:46;;;;;;;;;;;;;;;;;;5073868;28;20009;-69
2023/06/09 08:54:13;;;;;;;;;;;;;;;;;;5074000;28;19959;-69
2023/06/09 08:56:40;;;;;;;;;;;;;;;;;;5073622;28;19979;-70
2023/06/09 08:59:06;;;;;;;;;;;;;;;;;;5073728;28;19955;-73
2023/06/09 09:01:32;;;;;;;;;;;;;;;;;;5073530;28;20038;-74
2023/06/09 09:03:57;;;;;;;;;;;;;;;;;;5073271;28;19959;-74
2023/06/09 09:06:23;;;;;;;;;;;;;;;;;;5074105;28;20046;-69
2023/06/09 09:08:50;;;;;;;;;;;;;;;;;;5073549;28;19955;-70
2023/06/09 09:11:16;;;;;;;;;;;;;;;;;;5074053;28;19956;-68
2023/06/09 09:13:41;;;;;;;;;;;;;;;;;;5073399;28;19955;-69
2023/06/09 09:16:07;;;;;;;;;;;;;;;;;;5073393;28;20024;-68
2023/06/09 09:18:33;;;;;;;;;;;;;;;;;;5073235;28;20345;-68
2023/06/09 09:20:59;;;;;;;;;;;;;;;;;;5073267;28;19956;-67
2023/06/09 09:23:25;;;;;;;;;;;;;;;;;;5073553;28;20325;-68
2023/06/09 09:25:51;;;;;;;;;;;;;;;;;;5073709;28;19955;-66
2023/06/09 09:28:17;;;;;;;;;;;;;;;;;;5073794;28;19956;-67
2023/06/09 09:30:43;;;;;;;;;;;;;;;;;;5074007;28;20003;-67
2023/06/09 09:33:12;;;;;;;;;;;;;;;;;;5073439;28;20062;-67
2023/06/09 09:35:38;;;;;;;;;;;;;;;;;;5073270;28;20066;-67
2023/06/09 09:38:04;;;;;;;;;;;;;;;;;;5073457;28;20050;-67
2023/06/09 09:40:29;;;;;;;;;;;;;;;;;;5073323;28;20003;-67
2023/06/09 09:42:55;;;;;;;;;;;;;;;;;;5073422;28;20460;-67
2023/06/09 09:45:21;;;;;;;;;;;;;;;;;;5073588;28;19956;-68
2023/06/09 09:47:47;;;;;;;;;;;;;;;;;;5073308;28;20364;-68
2023/06/09 09:50:13;;;;;;;;;;;;;;;;;;5073279;28;19956;-67
2023/06/09 09:52:40;;;;;;;;;;;;;;;;;;5073273;28;19955;-67
2023/06/09 09:55:08;;;;;;;;;;;;;;;;;;5073284;28;20005;-67
2023/06/09 09:57:35;;;;;;;;;;;;;;;;;;5073402;28;19979;-67
2023/06/09 10:00:00;;;;;;;;;;;;;;;;;;5071947;28;19967;-68
2023/06/09 10:02:26;;;;;;;;;;;;;;;;;;5073409;28;19955;-68
2023/06/09 10:04:52;;;;;;;;;;;;;;;;;;5073077;28;20417;-67
2023/06/09 10:07:19;;;;;;;;;;;;;;;;;;5073091;28;19964;-67
2023/06/09 10:09:46;;;;;;;;;;;;;;;;;;5073625;28;19955;-67
2023/06/09 10:12:12;;;;;;;;;;;;;;;;;;5073437;28;19995;-67
2023/06/09 10:14:38;;;;;;;;;;;;;;;;;;5072975;28;19959;-67
2023/06/09 10:17:04;;;;;;;;;;;;;;;;;;5075341;28;19975;-68
2023/06/09 10:19:30;;;;;;;;;;;;;;;;;;5077090;28;19956;-67
2023/06/09 10:21:56;;;;;;;;;;;;;;;;;;5076728;28;20413;-68
2023/06/09 10:24:23;;;;;;;;;;;;;;;;;;5076640;28;19955;-68
2023/06/09 10:26:49;;;;;;;;;;;;;;;;;;5076877;28;20005;-67
2023/06/09 10:29:16;;;;;;;;;;;;;;;;;;5076561;28;19955;-67
2023/06/09 10:31:42;;;;;;;;;;;;;;;;;;5074925;28;20417;-67
2023/06/09 10:34:08;;;;;;;;;;;;;;;;;;5076397;28;19982;-68
2023/06/09 10:36:36;;;;;;;;;;;;;;;;;;5076364;28;19984;-67
2023/06/09 10:39:02;;;;;;;;;;;;;;;;;;5076651;28;20082;-67
2023/06/09 10:41:28;;;;;;;;;;;;;;;;;;5076310;28;20017;-67
2023/06/09 10:43:54;;;;;;;;;;;;;;;;;;5076116;28;19998;-67
2023/06/09 10:46:19;;;;;;;;;;;;;;;;;;5076185;28;19963;-67
2023/06/09 10:48:45;;;;;;;;;;;;;;;;;;5076436;28;20009;-68
2023/06/09 10:51:11;;;;;;;;;;;;;;;;;;5076154;28;19978;-68
2023/06/09 10:53:37;;;;;;;;;;;;;;;;;;5076412;28;19956;-68
2023/06/09 10:56:03;;;;;;;;;;;;;;;;;;5075997;28;20322;-68
2023/06/09 10:58:30;;;;;;;;;;;;;;;;;;5076029;28;19962;-67
2023/06/09 11:00:56;;;;;;;;;;;;;;;;;;5076039;28;20005;-68
2023/06/09 11:03:22;;;;;;;;;;;;;;;;;;5075919;28;19959;-67
2023/06/09 11:05:48;;;;;;;;;;;;;;;;;;5076145;28;19964;-68
2023/06/09 11:08:15;;;;;;;;;;;;;;;;;;5074516;28;19986;-67
2023/06/09 11:10:41;;;;;;;;;;;;;;;;;;5076318;28;19956;-67
2023/06/09 11:13:07;;;;;;;;;;;;;;;;;;5075785;28;19956;-67
2023/06/09 11:15:32;;;;;;;;;;;;;;;;;;5075662;28;19956;-67
2023/06/09 11:17:58;;;;;;;;;;;;;;;;;;5075670;28;19960;-67
2023/06/09 11:20:24;;;;;;;;;;;;;;;;;;5075633;28;20062;-68
2023/06/09 11:22:51;;;;;;;;;;;;;;;;;;5075620;28;19955;-68
2023/06/09 11:25:16;;;;;;;;;;;;;;;;;;5075810;28;19966;-67
2023/06/09 11:27:43;;;;;;;;;;;;;;;;;;5075686;28;20050;-68
2023/06/09 11:30:20;;;;;;;;;;;;;;;;;;5075378;28;19966;-67
2023/06/09 11:32:46;;;;;;;;;;;;;;;;;;5075711;28;20414;-67
2023/06/09 11:35:12;;;;;;;;;;;;;;;;;;5075493;28;20066;-68
2023/06/09 11:37:38;;;;;;;;;;;;;;;;;;5075504;28;20464;-67
2023/06/09 11:40:05;;;;;;;;;;;;;;;;;;5075802;28;19956;-67
2023/06/09 11:42:31;;;;;;;;;;;;;;;;;;5075053;28;20369;-68
2023/06/09 11:44:57;;;;;;;;;;;;;;;;;;5075758;28;19955;-68
2023/06/09 11:47:23;;;;;;;;;;;;;;;;;;5075066;28;20086;-67
2023/06/09 11:49:49;;;;;;;;;;;;;;;;;;5075328;28;19966;-67
2023/06/09 11:52:15;;;;;;;;;;;;;;;;;;5074960;28;19963;-67
2023/06/09 11:54:41;;;;;;;;;;;;;;;;;;5074961;28;20410;-68
2023/06/09 11:57:07;;;;;;;;;;;;;;;;;;5074763;28;19975;-67
2023/06/09 11:59:33;;;;;;;;;;;;;;;;;;5075082;28;19955;-68
2023/06/09 12:01:58;;;;;;;;;;;;;;;;;;5074668;28;19966;-67
2023/06/09 12:04:24;;;;;;;;;;;;;;;;;;5075298;28;20348;-67
2023/06/09 12:06:50;;;;;;;;;;;;;;;;;;5074934;28;19956;-68
2023/06/09 12:09:17;;;;;;;;;;;;;;;;;;5074659;28;20333;-67
2023/06/09 12:11:43;;;;;;;;;;;;;;;;;;5075221;28;19956;-67
2023/06/09 12:14:09;;;;;;;;;;;;;;;;;;5074776;28;19956;-68
2023/06/09 12:16:35;;;;;;;;;;;;;;;;;;5074391;28;20447;-67
2023/06/09 12:19:01;;;;;;;;;;;;;;;;;;5074397;28;20081;-68
2023/06/09 12:21:27;;;;;;;;;;;;;;;;;;5074891;28;20421;-68
2023/06/09 12:23:53;;;;;;;;;;;;;;;;;;5074595;28;19960;-67
2023/06/09 12:26:21;;;;;;;;;;;;;;;;;;5074540;28;20405;-68
2023/06/09 12:28:47;;;;;;;;;;;;;;;;;;5074266;28;19956;-68
2023/06/09 12:31:13;;;;;;;;;;;;;;;;;;5074167;28;19962;-68
2023/06/09 12:33:39;;;;;;;;;;;;;;;;;;5074032;28;19975;-68
2023/06/09 12:36:05;;;;;;;;;;;;;;;;;;5074259;28;19983;-68
2023/06/09 12:38:31;;;;;;;;;;;;;;;;;;5073694;28;19956;-68
2023/06/09 12:40:59;;;;;;;;;;;;;;;;;;5073990;28;19962;-67
2023/06/09 12:43:25;;;;;;;;;;;;;;;;;;5073782;28;19996;-67
2023/06/09 12:45:51;;;;;;;;;;;;;;;;;;5073922;28;19963;-68
2023/06/09 12:48:16;;;;;;;;;;;;;;;;;;5073905;28;19955;-67
2023/06/09 12:50:43;;;;;;;;;;;;;;;;;;5074453;28;20037;-66
2023/06/09 12:53:09;;;;;;;;;;;;;;;;;;5074178;28;20428;-68
2023/06/09 12:55:35;;;;;;;;;;;;;;;;;;5074083;28;19959;-67
2023/06/09 12:58:01;;;;;;;;;;;;;;;;;;5073606;28;19982;-68
2023/06/09 13:00:26;;;;;;;;;;;;;;;;;;5073734;28;20005;-68
2023/06/09 13:02:52;;;;;;;;;;;;;;;;;;5073626;28;19964;-67
2023/06/09 13:05:18;;;;;;;;;;;;;;;;;;5073828;28;20009;-67
2023/06/09 13:07:44;;;;;;;;;;;;;;;;;;5073903;28;19962;-67
2023/06/09 13:10:10;;;;;;;;;;;;;;;;;;5074084;28;20054;-66
2023/06/09 13:12:36;;;;;;;;;;;;;;;;;;5073846;28;20433;-67
2023/06/09 13:15:02;;;;;;;;;;;;;;;;;;5073556;28;19959;-67
2023/06/09 13:17:28;;;;;;;;;;;;;;;;;;5073724;28;19975;-67
2023/06/09 13:19:54;;;;;;;;;;;;;;;;;;5073511;28;19956;-67
2023/06/09 13:22:19;;;;;;;;;;;;;;;;;;5073752;28;20006;-67
2023/06/09 13:24:45;;;;;;;;;;;;;;;;;;5073459;28;19955;-68
2023/06/09 13:27:11;;;;;;;;;;;;;;;;;;5073415;28;20050;-67
2023/06/09 13:29:37;;;;;;;;;;;;;;;;;;5073605;28;19962;-67
2023/06/09 13:32:03;;;;;;;;;;;;;;;;;;5073677;28;19963;-67
2023/06/09 13:34:29;;;;;;;;;;;;;;;;;;5073822;28;19979;-68
2023/06/09 13:36:55;;;;;;;;;;;;;;;;;;5073243;28;19975;-67
2023/06/09 13:39:21;;;;;;;;;;;;;;;;;;5073373;28;19995;-68
2023/06/09 13:41:46;;;;;;;;;;;;;;;;;;5073638;28;20006;-68
2023/06/09 13:44:12;;;;;;;;;;;;;;;;;;5072848;28;20041;-67
2023/06/09 13:46:38;;;;;;;;;;;;;;;;;;5073808;28;20371;-67
2023/06/09 13:49:04;;;;;;;;;;;;;;;;;;5073513;28;19955;-68
2023/06/09 13:51:30;;;;;;;;;;;;;;;;;;5075412;28;19956;-68
2023/06/09 13:53:56;;;;;;;;;;;;;;;;;;5077150;28;19962;-67
2023/06/09 13:56:22;;;;;;;;;;;;;;;;;;5077358;28;19983;-67
2023/06/09 13:58:48;;;;;;;;;;;;;;;;;;5077427;28;19967;-67
2023/06/09 14:01:14;;;;;;;;;;;;;;;;;;5077039;28;19956;-68
2023/06/09 14:03:40;;;;;;;;;;;;;;;;;;5077046;28;20332;-68
2023/06/09 14:06:07;;;;;;;;;;;;;;;;;;5077279;28;20046;-68
2023/06/09 14:08:33;;;;;;;;;;;;;;;;;;5076902;28;19956;-68
2023/06/09 14:10:59;;;;;;;;;;;;;;;;;;5077701;28;19966;-67
2023/06/09 14:13:25;;;;;;;;;;;;;;;;;;5077100;28;19963;-67
2023/06/09 14:15:51;;;;;;;;;;;;;;;;;;5077277;28;19956;-66
2023/06/09 14:18:16;;;;;;;;;;;;;;;;;;5077000;28;20024;-67
2023/06/09 14:20:42;;;;;;;;;;;;;;;;;;5077263;28;19956;-67
2023/06/09 14:23:08;;;;;;;;;;;;;;;;;;5076680;28;20042;-66
2023/06/09 14:25:34;;;;;;;;;;;;;;;;;;5076900;28;20011;-67
2023/06/09 14:28:00;;;;;;;;;;;;;;;;;;5076483;28;20430;-68
2023/06/09 14:30:26;;;;;;;;;;;;;;;;;;5076547;28;19998;-68
2023/06/09 14:32:52;;;;;;;;;;;;;;;;;;5076804;28;19966;-67
2023/06/09 14:35:23;;;;;;;;;;;;;;;;;;5076317;28;19975;-68
2023/06/09 14:37:49;;;;;;;;;;;;;;;;;;5076236;28;19983;-67
2023/06/09 14:40:15;;;;;;;;;;;;;;;;;;5076623;28;19963;-67
2023/06/09 14:42:41;;;;;;;;;;;;;;;;;;5076096;28;19999;-68
2023/06/09 14:45:07;;;;;;;;;;;;;;;;;;5076191;28;19963;-67
2023/06/09 14:47:33;;;;;;;;;;;;;;;;;;5076502;28;19959;-68
2023/06/09 14:49:59;;;;;;;;;;;;;;;;;;5076166;28;20406;-68
2023/06/09 14:52:25;;;;;;;;;;;;;;;;;;5076113;28;19963;-67
2023/06/09 14:54:51;;;;;;;;;;;;;;;;;;5076619;28;20413;-67
2023/06/09 14:57:17;;;;;;;;;;;;;;;;;;5075997;28;20078;-68
2023/06/09 14:59:43;;;;;;;;;;;;;;;;;;5076002;28;20433;-68
2023/06/09 15:02:09;;;;;;;;;;;;;;;;;;5075844;28;19959;-67
2023/06/09 15:04:34;;;;;;;;;;;;;;;;;;5075861;28;20375;-67
2023/06/09 15:07:00;;;;;;;;;;;;;;;;;;5076154;28;19963;-67
2023/06/09 15:09:26;;;;;;;;;;;;;;;;;;5075774;28;20360;-67
2023/06/09 15:11:52;;;;;;;;;;;;;;;;;;5076262;28;19991;-67
2023/06/09 15:14:18;;;;;;;;;;;;;;;;;;5075749;28;19982;-68
2023/06/09 15:16:45;;;;;;;;;;;;;;;;;;5075613;28;19976;-67
2023/06/09 15:19:11;;;;;;;;;;;;;;;;;;5075898;28;19960;-67
2023/06/09 15:21:37;;;;;;;;;;;;;;;;;;5075837;28;20043;-68
2023/06/09 15:24:06;;;;;;;;;;;;;;;;;;5075825;28;19963;-67
2023/06/09 15:26:35;;;;;;;;;;;;;;;;;;5074279;28;20405;-68
2023/06/09 15:29:01;;;;;;;;;;;;;;;;;;5075717;28;19960;-68
2023/06/09 15:31:27;;;;;;;;;;;;;;;;;;5075358;28;19955;-68
2023/06/09 15:33:53;;;;;;;;;;;;;;;;;;5075792;28;20392;-67
2023/06/09 15:36:19;;;;;;;;;;;;;;;;;;5075227;28;19997;-68
2023/06/09 15:38:45;;;;;;;;;;;;;;;;;;5075694;28;20441;-68
2023/06/09 15:41:11;;;;;;;;;;;;;;;;;;5075140;28;19956;-68
2023/06/09 15:43:37;;;;;;;;;;;;;;;;;;5074954;28;20469;-67
2023/06/09 15:46:03;;;;;;;;;;;;;;;;;;5075340;28;19956;-67
2023/06/09 15:48:29;;;;;;;;;;;;;;;;;;5075014;28;19960;-67
2023/06/09 15:50:55;;;;;;;;;;;;;;;;;;5075004;28;20414;-68
2023/06/09 15:53:21;;;;;;;;;;;;;;;;;;5074977;28;19962;-67
2023/06/09 15:55:47;;;;;;;;;;;;;;;;;;5075159;28;19956;-68
2023/06/09 15:58:15;;;;;;;;;;;;;;;;;;5075171;28;19987;-67
2023/06/09 16:00:41;;;;;;;;;;;;;;;;;;5073543;28;19967;-68
2023/06/09 16:03:07;;;;;;;;;;;;;;;;;;5075019;28;19956;-67
2023/06/09 16:05:33;;;;;;;;;;;;;;;;;;5074715;28;19955;-67
2023/06/09 16:07:59;;;;;;;;;;;;;;;;;;5075410;28;19959;-68
2023/06/09 16:10:25;;;;;;;;;;;;;;;;;;5075388;28;19959;-68
2023/06/09 16:12:51;;;;;;;;;;;;;;;;;;5074563;28;19956;-67
2023/06/09 16:15:17;;;;;;;;;;;;;;;;;;5073811;28;20447;-67
2023/06/09 16:17:43;;;;;;;;;;;;;;;;;;5074324;28;20471;-67
2023/06/09 16:20:09;;;;;;;;;;;;;;;;;;5074584;28;19959;-67
2023/06/09 16:22:35;;;;;;;;;;;;;;;;;;5074593;28;19960;-67
2023/06/09 16:25:01;;;;;;;;;;;;;;;;;;5074568;28;20534;-68
2023/06/09 16:27:27;;;;;;;;;;;;;;;;;;5074197;28;19979;-67
2023/06/09 16:29:53;;;;;;;;;;;;;;;;;;5074793;28;19960;-67
2023/06/09 16:32:20;;;;;;;;;;;;;;;;;;5074175;28;20451;-68
2023/06/09 16:34:45;;;;;;;;;;;;;;;;;;5074179;28;20322;-68
2023/06/09 16:37:11;;;;;;;;;;;;;;;;;;5074021;28;19983;-68